Estación Meteorológica Peña el Pijo (Robertgarden) [ 11/16/18 15:27:15 CET ]

Fecha Hora Presion(HPa) Temp (°C) Humedad % Rocio (°C) Viento ( m/s) Direccion Lluvia 1Hora(mm) Lluvia 24H(mm) LLuvia Total(mm)
2018-Sep-21 01:01:52 1013.400 13.7 81 10.5         354.31
2018-Sep-21 02:01:35 1013.300 13.2 82 10.2         354.31
2018-Sep-21 03:01:42 1013.000 12.9 83 10.0         354.31
2018-Sep-21 04:01:39 1012.400 12.6 84 9.9         354.31
2018-Sep-21 05:01:42 1012.200 12.8 85 10.3         354.31
2018-Sep-21 06:01:41 1012.300 12.4 85 9.9         354.31
2018-Sep-21 07:01:51 1012.300 12.6 87 10.5         354.31
2018-Sep-21 08:01:35 1012.800 12.8 87 10.7         354.31
2018-Sep-21 09:01:38 1013.100 14.3 87 12.2         354.31
2018-Sep-21 10:01:33 1013.400 19.9 80 16.4         354.31
2018-Sep-21 11:01:46 1013.400 26.6 57 17.4         354.31
2018-Sep-21 12:01:41 1013.600 29.9 35 12.7         354.31
2018-Sep-21 13:02:02 1013.600 31.2 34 13.4 0.4 S     354.31
2018-Sep-21 14:01:47 1013.300 30.6 33 12.4         354.31
2018-Sep-21 15:01:44 1012.700 31.1 32 12.4         354.31
2018-Sep-21 16:01:42 1012.400 30.4 33 12.2         354.31
2018-Sep-21 17:02:00 1012.400 30.3 30 10.8         354.31
2018-Sep-21 18:01:48 1012.200 30.4 30 10.9         354.31
2018-Sep-21 19:01:49 1012.400 27.6 37 11.5         354.31
2018-Sep-21 20:01:46 1012.800 23.8 45 11.1         354.31
2018-Sep-21 21:01:40 1013.600 20.2 58 11.6         354.31
2018-Sep-21 22:01:54 1014.500 18.1 65 11.4         354.31
2018-Sep-21 23:01:52 1014.800 17.9 69 12.2         354.31

Temperatura Máxima:31°    Temperatura Mínima:12°
Presión Máxima:1014.800 Hpa    Presión Mínima:1012.200 Hpa


Volver